sensor_id;sensor_type;location;lat;lon;timestamp;P1;durP1;ratioP1;P2;durP2;ratioP2
43835;SDS011;39345;43.964;25.340;2022-12-10T00:00:47;35.90;;;17.25;;
43835;SDS011;39345;43.964;25.340;2022-12-10T00:03:14;43.45;;;19.10;;
43835;SDS011;39345;43.964;25.340;2022-12-10T00:05:41;38.92;;;19.05;;
43835;SDS011;39345;43.964;25.340;2022-12-10T00:08:09;42.90;;;19.30;;
43835;SDS011;39345;43.964;25.340;2022-12-10T00:10:40;35.55;;;18.63;;
43835;SDS011;39345;43.964;25.340;2022-12-10T00:13:07;37.63;;;18.92;;
43835;SDS011;39345;43.964;25.340;2022-12-10T00:15:35;34.83;;;19.35;;
43835;SDS011;39345;43.964;25.340;2022-12-10T00:18:02;39.15;;;19.40;;
43835;SDS011;39345;43.964;25.340;2022-12-10T00:20:30;36.72;;;18.75;;
43835;SDS011;39345;43.964;25.340;2022-12-10T00:22:57;30.88;;;17.88;;
43835;SDS011;39345;43.964;25.340;2022-12-10T00:25:24;34.25;;;17.33;;
43835;SDS011;39345;43.964;25.340;2022-12-10T00:27:52;41.17;;;19.63;;
43835;SDS011;39345;43.964;25.340;2022-12-10T00:30:19;37.45;;;19.02;;
43835;SDS011;39345;43.964;25.340;2022-12-10T00:32:47;35.70;;;18.33;;
43835;SDS011;39345;43.964;25.340;2022-12-10T00:35:14;40.08;;;19.33;;
43835;SDS011;39345;43.964;25.340;2022-12-10T00:37:42;31.08;;;18.20;;
43835;SDS011;39345;43.964;25.340;2022-12-10T00:40:09;30.98;;;17.05;;
43835;SDS011;39345;43.964;25.340;2022-12-10T00:42:38;34.30;;;16.42;;
43835;SDS011;39345;43.964;25.340;2022-12-10T00:45:06;38.15;;;17.55;;
43835;SDS011;39345;43.964;25.340;2022-12-10T00:47:34;33.65;;;16.95;;
43835;SDS011;39345;43.964;25.340;2022-12-10T00:50:01;29.45;;;15.50;;
43835;SDS011;39345;43.964;25.340;2022-12-10T00:52:29;32.22;;;16.17;;
43835;SDS011;39345;43.964;25.340;2022-12-10T00:54:56;29.63;;;16.70;;
43835;SDS011;39345;43.964;25.340;2022-12-10T00:57:25;27.17;;;15.98;;
43835;SDS011;39345;43.964;25.340;2022-12-10T00:59:52;33.10;;;17.45;;
43835;SDS011;39345;43.964;25.340;2022-12-10T01:02:20;37.75;;;18.10;;
43835;SDS011;39345;43.964;25.340;2022-12-10T01:04:51;44.50;;;18.85;;
43835;SDS011;39345;43.964;25.340;2022-12-10T01:07:19;48.10;;;17.80;;
43835;SDS011;39345;43.964;25.340;2022-12-10T01:09:46;41.38;;;17.23;;
43835;SDS011;39345;43.964;25.340;2022-12-10T01:12:14;50.10;;;17.73;;
43835;SDS011;39345;43.964;25.340;2022-12-10T01:14:41;40.03;;;17.73;;
43835;SDS011;39345;43.964;25.340;2022-12-10T01:17:08;44.97;;;17.17;;
43835;SDS011;39345;43.964;25.340;2022-12-10T01:19:36;68.60;;;17.05;;
43835;SDS011;39345;43.964;25.340;2022-12-10T01:22:04;50.10;;;17.77;;
43835;SDS011;39345;43.964;25.340;2022-12-10T01:24:31;52.05;;;16.77;;
43835;SDS011;39345;43.964;25.340;2022-12-10T01:26:59;34.83;;;18.20;;
43835;SDS011;39345;43.964;25.340;2022-12-10T01:29:26;36.58;;;16.73;;
43835;SDS011;39345;43.964;25.340;2022-12-10T01:31:55;33.78;;;18.20;;
43835;SDS011;39345;43.964;25.340;2022-12-10T01:34:23;36.80;;;18.65;;
43835;SDS011;39345;43.964;25.340;2022-12-10T01:36:54;34.83;;;16.80;;
43835;SDS011;39345;43.964;25.340;2022-12-10T01:39:22;52.15;;;17.83;;
43835;SDS011;39345;43.964;25.340;2022-12-10T01:41:51;31.00;;;16.85;;
43835;SDS011;39345;43.964;25.340;2022-12-10T01:46:48;35.83;;;17.70;;
43835;SDS011;39345;43.964;25.340;2022-12-10T01:49:16;33.60;;;17.13;;
43835;SDS011;39345;43.964;25.340;2022-12-10T01:51:46;43.75;;;18.33;;
43835;SDS011;39345;43.964;25.340;2022-12-10T01:54:35;40.08;;;18.70;;
43835;SDS011;39345;43.964;25.340;2022-12-10T01:57:02;35.95;;;17.52;;
43835;SDS011;39345;43.964;25.340;2022-12-10T01:59:31;36.33;;;17.10;;
43835;SDS011;39345;43.964;25.340;2022-12-10T02:12:19;31.55;;;16.50;;
43835;SDS011;39345;43.964;25.340;2022-12-10T02:19:57;39.55;;;16.48;;
43835;SDS011;39345;43.964;25.340;2022-12-10T02:22:28;30.70;;;15.68;;
43835;SDS011;39345;43.964;25.340;2022-12-10T02:24:57;32.28;;;16.70;;
43835;SDS011;39345;43.964;25.340;2022-12-10T02:30:19;31.63;;;16.55;;
43835;SDS011;39345;43.964;25.340;2022-12-10T02:32:47;31.60;;;16.90;;
43835;SDS011;39345;43.964;25.340;2022-12-10T02:35:19;31.45;;;15.98;;
43835;SDS011;39345;43.964;25.340;2022-12-10T02:37:49;33.20;;;17.77;;
43835;SDS011;39345;43.964;25.340;2022-12-10T02:40:23;30.05;;;16.35;;
43835;SDS011;39345;43.964;25.340;2022-12-10T02:42:53;29.33;;;16.30;;
43835;SDS011;39345;43.964;25.340;2022-12-10T02:45:22;38.08;;;18.63;;
43835;SDS011;39345;43.964;25.340;2022-12-10T02:47:51;38.13;;;19.45;;
43835;SDS011;39345;43.964;25.340;2022-12-10T02:50:21;35.45;;;18.00;;
43835;SDS011;39345;43.964;25.340;2022-12-10T02:52:49;37.63;;;18.25;;
43835;SDS011;39345;43.964;25.340;2022-12-10T02:55:17;50.25;;;19.42;;
43835;SDS011;39345;43.964;25.340;2022-12-10T03:00:28;42.55;;;19.05;;
43835;SDS011;39345;43.964;25.340;2022-12-10T03:05:56;31.88;;;17.13;;
43835;SDS011;39345;43.964;25.340;2022-12-10T03:08:30;27.00;;;15.27;;
43835;SDS011;39345;43.964;25.340;2022-12-10T03:13:32;37.08;;;18.05;;
43835;SDS011;39345;43.964;25.340;2022-12-10T03:16:02;35.72;;;17.23;;
43835;SDS011;39345;43.964;25.340;2022-12-10T03:18:30;39.92;;;17.45;;
43835;SDS011;39345;43.964;25.340;2022-12-10T03:21:01;35.60;;;18.33;;
43835;SDS011;39345;43.964;25.340;2022-12-10T03:23:29;34.05;;;17.55;;
43835;SDS011;39345;43.964;25.340;2022-12-10T03:25:59;32.88;;;17.50;;
43835;SDS011;39345;43.964;25.340;2022-12-10T03:28:27;32.47;;;17.40;;
43835;SDS011;39345;43.964;25.340;2022-12-10T03:30:57;28.30;;;16.17;;
43835;SDS011;39345;43.964;25.340;2022-12-10T03:33:25;28.00;;;15.50;;
43835;SDS011;39345;43.964;25.340;2022-12-10T03:35:53;31.70;;;17.40;;
43835;SDS011;39345;43.964;25.340;2022-12-10T03:38:20;31.05;;;17.05;;
43835;SDS011;39345;43.964;25.340;2022-12-10T03:40:48;29.98;;;16.40;;
43835;SDS011;39345;43.964;25.340;2022-12-10T03:43:15;31.55;;;17.35;;
43835;SDS011;39345;43.964;25.340;2022-12-10T03:45:42;39.10;;;17.63;;
43835;SDS011;39345;43.964;25.340;2022-12-10T03:48:10;41.55;;;18.92;;
43835;SDS011;39345;43.964;25.340;2022-12-10T03:50:37;35.78;;;17.70;;
43835;SDS011;39345;43.964;25.340;2022-12-10T03:53:05;34.00;;;18.48;;
43835;SDS011;39345;43.964;25.340;2022-12-10T03:55:32;34.38;;;18.05;;
43835;SDS011;39345;43.964;25.340;2022-12-10T03:58:00;36.70;;;20.40;;
43835;SDS011;39345;43.964;25.340;2022-12-10T04:00:27;33.50;;;18.05;;
43835;SDS011;39345;43.964;25.340;2022-12-10T04:02:55;34.53;;;18.63;;
43835;SDS011;39345;43.964;25.340;2022-12-10T04:05:22;37.72;;;19.45;;
43835;SDS011;39345;43.964;25.340;2022-12-10T04:07:50;35.83;;;19.40;;
43835;SDS011;39345;43.964;25.340;2022-12-10T04:10:17;35.75;;;19.48;;
43835;SDS011;39345;43.964;25.340;2022-12-10T04:12:45;43.10;;;19.95;;
43835;SDS011;39345;43.964;25.340;2022-12-10T04:15:32;38.92;;;18.73;;
43835;SDS011;39345;43.964;25.340;2022-12-10T04:18:19;39.08;;;18.88;;
43835;SDS011;39345;43.964;25.340;2022-12-10T04:20:46;38.05;;;19.77;;
43835;SDS011;39345;43.964;25.340;2022-12-10T04:23:32;38.38;;;19.17;;
43835;SDS011;39345;43.964;25.340;2022-12-10T04:26:18;36.85;;;19.13;;
43835;SDS011;39345;43.964;25.340;2022-12-10T04:29:05;40.17;;;19.90;;
43835;SDS011;39345;43.964;25.340;2022-12-10T04:31:33;38.20;;;19.33;;
43835;SDS011;39345;43.964;25.340;2022-12-10T04:34:00;39.90;;;20.67;;
43835;SDS011;39345;43.964;25.340;2022-12-10T04:36:28;50.13;;;23.48;;
43835;SDS011;39345;43.964;25.340;2022-12-10T04:38:55;48.33;;;23.83;;
43835;SDS011;39345;43.964;25.340;2022-12-10T04:41:23;49.60;;;23.70;;
43835;SDS011;39345;43.964;25.340;2022-12-10T04:43:51;48.10;;;23.98;;
43835;SDS011;39345;43.964;25.340;2022-12-10T04:46:19;45.55;;;22.23;;
43835;SDS011;39345;43.964;25.340;2022-12-10T04:48:46;44.63;;;21.58;;
43835;SDS011;39345;43.964;25.340;2022-12-10T04:51:14;37.17;;;20.05;;
43835;SDS011;39345;43.964;25.340;2022-12-10T04:53:43;44.88;;;20.02;;
43835;SDS011;39345;43.964;25.340;2022-12-10T04:56:10;45.13;;;21.13;;
43835;SDS011;39345;43.964;25.340;2022-12-10T04:58:38;36.22;;;20.10;;
43835;SDS011;39345;43.964;25.340;2022-12-10T05:01:07;34.20;;;18.98;;
43835;SDS011;39345;43.964;25.340;2022-12-10T05:03:34;36.53;;;20.13;;
43835;SDS011;39345;43.964;25.340;2022-12-10T05:06:06;34.60;;;19.52;;
43835;SDS011;39345;43.964;25.340;2022-12-10T05:08:35;41.65;;;21.92;;
43835;SDS011;39345;43.964;25.340;2022-12-10T05:11:03;36.03;;;19.98;;
43835;SDS011;39345;43.964;25.340;2022-12-10T05:13:30;32.92;;;18.42;;
43835;SDS011;39345;43.964;25.340;2022-12-10T05:16:00;34.53;;;18.90;;
43835;SDS011;39345;43.964;25.340;2022-12-10T05:18:28;32.45;;;19.10;;
43835;SDS011;39345;43.964;25.340;2022-12-10T05:20:58;34.67;;;19.52;;
43835;SDS011;39345;43.964;25.340;2022-12-10T05:23:25;35.70;;;19.27;;
43835;SDS011;39345;43.964;25.340;2022-12-10T05:26:09;35.03;;;19.77;;
43835;SDS011;39345;43.964;25.340;2022-12-10T05:28:41;32.22;;;18.38;;
43835;SDS011;39345;43.964;25.340;2022-12-10T05:31:16;34.22;;;18.77;;
43835;SDS011;39345;43.964;25.340;2022-12-10T05:33:44;35.28;;;19.48;;
43835;SDS011;39345;43.964;25.340;2022-12-10T05:36:12;35.55;;;18.95;;
43835;SDS011;39345;43.964;25.340;2022-12-10T05:38:41;36.17;;;20.25;;
43835;SDS011;39345;43.964;25.340;2022-12-10T05:41:09;32.72;;;18.95;;
43835;SDS011;39345;43.964;25.340;2022-12-10T05:43:38;37.40;;;21.70;;
43835;SDS011;39345;43.964;25.340;2022-12-10T05:46:06;37.00;;;22.10;;
43835;SDS011;39345;43.964;25.340;2022-12-10T05:48:34;42.28;;;27.42;;
43835;SDS011;39345;43.964;25.340;2022-12-10T05:51:05;38.40;;;22.67;;
43835;SDS011;39345;43.964;25.340;2022-12-10T05:53:33;37.15;;;22.17;;
43835;SDS011;39345;43.964;25.340;2022-12-10T05:56:08;41.38;;;23.42;;
43835;SDS011;39345;43.964;25.340;2022-12-10T05:58:35;44.05;;;24.45;;
43835;SDS011;39345;43.964;25.340;2022-12-10T06:01:07;44.45;;;26.67;;
43835;SDS011;39345;43.964;25.340;2022-12-10T06:03:34;44.38;;;25.75;;
43835;SDS011;39345;43.964;25.340;2022-12-10T06:06:02;38.70;;;22.27;;
43835;SDS011;39345;43.964;25.340;2022-12-10T06:08:30;42.05;;;23.40;;
43835;SDS011;39345;43.964;25.340;2022-12-10T06:11:01;43.47;;;23.10;;
43835;SDS011;39345;43.964;25.340;2022-12-10T06:13:28;41.17;;;22.92;;
43835;SDS011;39345;43.964;25.340;2022-12-10T06:15:56;42.08;;;23.77;;
43835;SDS011;39345;43.964;25.340;2022-12-10T06:18:24;46.78;;;24.10;;
43835;SDS011;39345;43.964;25.340;2022-12-10T06:20:51;42.75;;;22.75;;
43835;SDS011;39345;43.964;25.340;2022-12-10T06:23:18;41.80;;;22.85;;
43835;SDS011;39345;43.964;25.340;2022-12-10T06:25:46;36.22;;;21.55;;
43835;SDS011;39345;43.964;25.340;2022-12-10T06:28:13;38.03;;;22.30;;
43835;SDS011;39345;43.964;25.340;2022-12-10T06:30:41;39.42;;;22.90;;
43835;SDS011;39345;43.964;25.340;2022-12-10T06:33:08;38.92;;;22.52;;
43835;SDS011;39345;43.964;25.340;2022-12-10T06:35:37;36.80;;;22.05;;
43835;SDS011;39345;43.964;25.340;2022-12-10T06:38:04;40.22;;;23.42;;
43835;SDS011;39345;43.964;25.340;2022-12-10T06:40:31;42.00;;;23.45;;
43835;SDS011;39345;43.964;25.340;2022-12-10T06:42:59;43.35;;;22.67;;
43835;SDS011;39345;43.964;25.340;2022-12-10T06:45:26;39.30;;;21.83;;
43835;SDS011;39345;43.964;25.340;2022-12-10T06:47:54;33.90;;;19.63;;
43835;SDS011;39345;43.964;25.340;2022-12-10T06:50:24;37.47;;;21.05;;
43835;SDS011;39345;43.964;25.340;2022-12-10T06:52:52;32.92;;;18.88;;
43835;SDS011;39345;43.964;25.340;2022-12-10T06:55:20;30.95;;;17.50;;
43835;SDS011;39345;43.964;25.340;2022-12-10T06:57:51;30.90;;;17.38;;
43835;SDS011;39345;43.964;25.340;2022-12-10T07:00:19;28.88;;;17.70;;
43835;SDS011;39345;43.964;25.340;2022-12-10T07:02:48;27.45;;;17.13;;
43835;SDS011;39345;43.964;25.340;2022-12-10T07:05:15;29.40;;;17.65;;
43835;SDS011;39345;43.964;25.340;2022-12-10T07:07:43;28.38;;;16.58;;
43835;SDS011;39345;43.964;25.340;2022-12-10T07:10:12;30.20;;;19.90;;
43835;SDS011;39345;43.964;25.340;2022-12-10T07:12:40;29.00;;;18.80;;
43835;SDS011;39345;43.964;25.340;2022-12-10T07:15:07;27.00;;;19.40;;
43835;SDS011;39345;43.964;25.340;2022-12-10T07:17:35;25.65;;;17.70;;
43835;SDS011;39345;43.964;25.340;2022-12-10T07:20:03;31.10;;;21.23;;
43835;SDS011;39345;43.964;25.340;2022-12-10T07:22:30;25.88;;;17.92;;
43835;SDS011;39345;43.964;25.340;2022-12-10T07:24:58;25.02;;;17.52;;
43835;SDS011;39345;43.964;25.340;2022-12-10T07:27:25;22.73;;;15.93;;
43835;SDS011;39345;43.964;25.340;2022-12-10T07:29:53;23.02;;;16.15;;
43835;SDS011;39345;43.964;25.340;2022-12-10T07:32:21;19.92;;;13.85;;
43835;SDS011;39345;43.964;25.340;2022-12-10T07:34:49;20.52;;;14.88;;
43835;SDS011;39345;43.964;25.340;2022-12-10T07:37:18;21.08;;;14.25;;
43835;SDS011;39345;43.964;25.340;2022-12-10T07:39:45;22.77;;;13.98;;
43835;SDS011;39345;43.964;25.340;2022-12-10T07:42:13;21.15;;;14.10;;
43835;SDS011;39345;43.964;25.340;2022-12-10T07:44:40;19.55;;;13.75;;
43835;SDS011;39345;43.964;25.340;2022-12-10T07:47:14;19.70;;;13.77;;
43835;SDS011;39345;43.964;25.340;2022-12-10T07:49:42;20.50;;;13.77;;
43835;SDS011;39345;43.964;25.340;2022-12-10T07:52:09;19.15;;;12.65;;
43835;SDS011;39345;43.964;25.340;2022-12-10T07:54:37;20.38;;;12.77;;
43835;SDS011;39345;43.964;25.340;2022-12-10T07:57:04;63.67;;;43.53;;
43835;SDS011;39345;43.964;25.340;2022-12-10T07:59:32;37.17;;;25.58;;
43835;SDS011;39345;43.964;25.340;2022-12-10T08:01:59;23.42;;;15.77;;
43835;SDS011;39345;43.964;25.340;2022-12-10T08:04:34;20.23;;;14.53;;
43835;SDS011;39345;43.964;25.340;2022-12-10T08:07:01;23.75;;;15.07;;
43835;SDS011;39345;43.964;25.340;2022-12-10T08:09:30;23.92;;;15.95;;
43835;SDS011;39345;43.964;25.340;2022-12-10T08:11:57;25.40;;;18.58;;
43835;SDS011;39345;43.964;25.340;2022-12-10T08:14:25;28.08;;;18.65;;
43835;SDS011;39345;43.964;25.340;2022-12-10T08:16:52;32.22;;;19.38;;
43835;SDS011;39345;43.964;25.340;2022-12-10T08:19:20;30.42;;;20.02;;
43835;SDS011;39345;43.964;25.340;2022-12-10T08:21:55;29.73;;;20.08;;
43835;SDS011;39345;43.964;25.340;2022-12-10T08:24:22;28.38;;;20.15;;
43835;SDS011;39345;43.964;25.340;2022-12-10T08:26:50;28.52;;;19.58;;
43835;SDS011;39345;43.964;25.340;2022-12-10T08:29:17;32.53;;;20.63;;
43835;SDS011;39345;43.964;25.340;2022-12-10T08:31:45;27.42;;;18.63;;
43835;SDS011;39345;43.964;25.340;2022-12-10T08:34:14;33.83;;;21.60;;
43835;SDS011;39345;43.964;25.340;2022-12-10T08:36:43;27.13;;;18.77;;
43835;SDS011;39345;43.964;25.340;2022-12-10T08:39:12;41.53;;;27.63;;
43835;SDS011;39345;43.964;25.340;2022-12-10T08:41:43;23.85;;;16.67;;
43835;SDS011;39345;43.964;25.340;2022-12-10T08:44:11;25.33;;;17.85;;
43835;SDS011;39345;43.964;25.340;2022-12-10T08:46:39;29.52;;;19.83;;
43835;SDS011;39345;43.964;25.340;2022-12-10T08:49:06;27.52;;;19.23;;
43835;SDS011;39345;43.964;25.340;2022-12-10T08:51:34;27.38;;;19.58;;
43835;SDS011;39345;43.964;25.340;2022-12-10T08:54:01;40.33;;;25.60;;
43835;SDS011;39345;43.964;25.340;2022-12-10T08:56:29;30.80;;;20.60;;
43835;SDS011;39345;43.964;25.340;2022-12-10T08:58:57;29.08;;;20.38;;
43835;SDS011;39345;43.964;25.340;2022-12-10T09:01:25;29.88;;;20.05;;
43835;SDS011;39345;43.964;25.340;2022-12-10T09:03:52;31.42;;;20.30;;
43835;SDS011;39345;43.964;25.340;2022-12-10T09:06:21;26.83;;;19.10;;
43835;SDS011;39345;43.964;25.340;2022-12-10T09:08:50;26.80;;;19.08;;
43835;SDS011;39345;43.964;25.340;2022-12-10T09:13:48;32.55;;;20.10;;
43835;SDS011;39345;43.964;25.340;2022-12-10T09:16:16;27.45;;;19.80;;
43835;SDS011;39345;43.964;25.340;2022-12-10T09:18:44;27.75;;;19.90;;
43835;SDS011;39345;43.964;25.340;2022-12-10T09:21:14;25.90;;;18.60;;
43835;SDS011;39345;43.964;25.340;2022-12-10T09:23:42;26.95;;;18.63;;
43835;SDS011;39345;43.964;25.340;2022-12-10T09:26:13;24.98;;;18.73;;
43835;SDS011;39345;43.964;25.340;2022-12-10T09:28:41;26.48;;;18.88;;
43835;SDS011;39345;43.964;25.340;2022-12-10T09:31:09;24.17;;;18.08;;
43835;SDS011;39345;43.964;25.340;2022-12-10T09:33:45;24.02;;;17.67;;
43835;SDS011;39345;43.964;25.340;2022-12-10T09:36:13;24.67;;;18.20;;
43835;SDS011;39345;43.964;25.340;2022-12-10T09:38:42;24.52;;;17.55;;
43835;SDS011;39345;43.964;25.340;2022-12-10T09:43:41;24.85;;;18.73;;
43835;SDS011;39345;43.964;25.340;2022-12-10T09:46:23;25.52;;;18.35;;
43835;SDS011;39345;43.964;25.340;2022-12-10T09:51:40;28.75;;;19.45;;
43835;SDS011;39345;43.964;25.340;2022-12-10T09:54:54;28.60;;;19.90;;
43835;SDS011;39345;43.964;25.340;2022-12-10T09:56:55;35.15;;;21.15;;
43835;SDS011;39345;43.964;25.340;2022-12-10T09:59:26;28.60;;;20.83;;
43835;SDS011;39345;43.964;25.340;2022-12-10T10:02:40;29.95;;;21.08;;
43835;SDS011;39345;43.964;25.340;2022-12-10T10:04:42;26.42;;;19.35;;
43835;SDS011;39345;43.964;25.340;2022-12-10T10:07:11;28.15;;;19.75;;
43835;SDS011;39345;43.964;25.340;2022-12-10T10:09:44;30.35;;;20.58;;
43835;SDS011;39345;43.964;25.340;2022-12-10T10:12:14;30.85;;;20.95;;
43835;SDS011;39345;43.964;25.340;2022-12-10T10:14:43;28.88;;;19.60;;
43835;SDS011;39345;43.964;25.340;2022-12-10T10:17:13;30.52;;;20.25;;
43835;SDS011;39345;43.964;25.340;2022-12-10T10:19:44;32.10;;;20.45;;
43835;SDS011;39345;43.964;25.340;2022-12-10T10:22:11;28.58;;;20.63;;
43835;SDS011;39345;43.964;25.340;2022-12-10T10:24:40;34.67;;;22.17;;
43835;SDS011;39345;43.964;25.340;2022-12-10T10:27:21;32.33;;;22.15;;
43835;SDS011;39345;43.964;25.340;2022-12-10T10:29:50;30.33;;;20.50;;
43835;SDS011;39345;43.964;25.340;2022-12-10T10:35:03;23.17;;;17.35;;
43835;SDS011;39345;43.964;25.340;2022-12-10T10:37:39;20.77;;;15.57;;
43835;SDS011;39345;43.964;25.340;2022-12-10T10:42:55;22.17;;;15.07;;
43835;SDS011;39345;43.964;25.340;2022-12-10T10:45:31;18.63;;;13.90;;
43835;SDS011;39345;43.964;25.340;2022-12-10T10:48:18;23.42;;;15.18;;
43835;SDS011;39345;43.964;25.340;2022-12-10T10:50:47;20.00;;;14.15;;
43835;SDS011;39345;43.964;25.340;2022-12-10T11:01:27;21.58;;;14.55;;
43835;SDS011;39345;43.964;25.340;2022-12-10T11:04:09;22.20;;;15.65;;
43835;SDS011;39345;43.964;25.340;2022-12-10T11:06:37;21.35;;;15.07;;
43835;SDS011;39345;43.964;25.340;2022-12-10T11:09:07;40.60;;;17.40;;
43835;SDS011;39345;43.964;25.340;2022-12-10T11:11:36;26.45;;;15.20;;
43835;SDS011;39345;43.964;25.340;2022-12-10T11:16:41;30.15;;;16.67;;
43835;SDS011;39345;43.964;25.340;2022-12-10T11:19:16;26.58;;;17.83;;
43835;SDS011;39345;43.964;25.340;2022-12-10T11:21:45;32.58;;;19.20;;
43835;SDS011;39345;43.964;25.340;2022-12-10T11:24:15;26.20;;;16.80;;
43835;SDS011;39345;43.964;25.340;2022-12-10T11:27:06;22.30;;;16.33;;
43835;SDS011;39345;43.964;25.340;2022-12-10T11:45:44;23.92;;;16.30;;
43835;SDS011;39345;43.964;25.340;2022-12-10T11:50:46;19.38;;;13.68;;
43835;SDS011;39345;43.964;25.340;2022-12-10T11:53:32;18.00;;;13.18;;
43835;SDS011;39345;43.964;25.340;2022-12-10T11:56:08;25.85;;;13.90;;
43835;SDS011;39345;43.964;25.340;2022-12-10T11:59:41;16.15;;;9.38;;
43835;SDS011;39345;43.964;25.340;2022-12-10T12:07:05;17.40;;;10.77;;
43835;SDS011;39345;43.964;25.340;2022-12-10T12:09:39;16.25;;;9.40;;
43835;SDS011;39345;43.964;25.340;2022-12-10T12:14:51;15.48;;;9.75;;
43835;SDS011;39345;43.964;25.340;2022-12-10T12:17:25;14.13;;;9.70;;
43835;SDS011;39345;43.964;25.340;2022-12-10T12:20:03;14.07;;;10.05;;
43835;SDS011;39345;43.964;25.340;2022-12-10T12:22:36;13.45;;;10.18;;
43835;SDS011;39345;43.964;25.340;2022-12-10T12:30:45;27.63;;;19.23;;
43835;SDS011;39345;43.964;25.340;2022-12-10T12:33:28;21.52;;;14.23;;
43835;SDS011;39345;43.964;25.340;2022-12-10T12:38:31;14.90;;;9.82;;
43835;SDS011;39345;43.964;25.340;2022-12-10T12:41:16;17.17;;;10.82;;
43835;SDS011;39345;43.964;25.340;2022-12-10T12:43:47;16.92;;;11.02;;
43835;SDS011;39345;43.964;25.340;2022-12-10T12:46:23;14.20;;;10.25;;
43835;SDS011;39345;43.964;25.340;2022-12-10T12:48:58;13.88;;;9.68;;
43835;SDS011;39345;43.964;25.340;2022-12-10T12:54:14;15.68;;;9.50;;
43835;SDS011;39345;43.964;25.340;2022-12-10T12:59:34;13.60;;;9.48;;
43835;SDS011;39345;43.964;25.340;2022-12-10T13:04:30;14.15;;;8.77;;
43835;SDS011;39345;43.964;25.340;2022-12-10T13:09:45;21.42;;;15.20;;
43835;SDS011;39345;43.964;25.340;2022-12-10T13:19:41;17.45;;;11.20;;
43835;SDS011;39345;43.964;25.340;2022-12-10T13:22:09;18.98;;;12.40;;
43835;SDS011;39345;43.964;25.340;2022-12-10T13:29:43;25.85;;;15.50;;
43835;SDS011;39345;43.964;25.340;2022-12-10T13:32:21;24.13;;;16.60;;
43835;SDS011;39345;43.964;25.340;2022-12-10T13:37:36;23.58;;;17.85;;
43835;SDS011;39345;43.964;25.340;2022-12-10T13:42:36;36.42;;;24.92;;
43835;SDS011;39345;43.964;25.340;2022-12-10T13:47:53;28.42;;;18.77;;
43835;SDS011;39345;43.964;25.340;2022-12-10T13:53:01;25.70;;;18.25;;
43835;SDS011;39345;43.964;25.340;2022-12-10T14:08:28;62.03;;;36.85;;
43835;SDS011;39345;43.964;25.340;2022-12-10T14:10:57;43.08;;;27.17;;
43835;SDS011;39345;43.964;25.340;2022-12-10T14:13:44;67.85;;;35.00;;
43835;SDS011;39345;43.964;25.340;2022-12-10T14:16:14;65.68;;;31.83;;
43835;SDS011;39345;43.964;25.340;2022-12-10T14:18:42;57.20;;;29.42;;
43835;SDS011;39345;43.964;25.340;2022-12-10T14:21:10;103.07;;;48.22;;
43835;SDS011;39345;43.964;25.340;2022-12-10T14:23:38;41.33;;;24.55;;
43835;SDS011;39345;43.964;25.340;2022-12-10T14:26:17;52.10;;;30.73;;
43835;SDS011;39345;43.964;25.340;2022-12-10T14:28:46;53.35;;;33.53;;
43835;SDS011;39345;43.964;25.340;2022-12-10T14:31:18;47.38;;;28.63;;
43835;SDS011;39345;43.964;25.340;2022-12-10T14:33:46;43.10;;;26.83;;
43835;SDS011;39345;43.964;25.340;2022-12-10T14:36:15;32.20;;;22.75;;
43835;SDS011;39345;43.964;25.340;2022-12-10T14:38:43;35.75;;;23.30;;
43835;SDS011;39345;43.964;25.340;2022-12-10T14:41:12;60.92;;;44.95;;
43835;SDS011;39345;43.964;25.340;2022-12-10T14:43:41;75.28;;;53.05;;
43835;SDS011;39345;43.964;25.340;2022-12-10T14:46:13;99.43;;;61.75;;
43835;SDS011;39345;43.964;25.340;2022-12-10T14:48:41;97.55;;;59.10;;
43835;SDS011;39345;43.964;25.340;2022-12-10T14:51:19;107.25;;;68.45;;
43835;SDS011;39345;43.964;25.340;2022-12-10T14:53:48;101.00;;;64.32;;
43835;SDS011;39345;43.964;25.340;2022-12-10T14:56:59;88.07;;;57.00;;
43835;SDS011;39345;43.964;25.340;2022-12-10T14:59:08;69.05;;;42.58;;
43835;SDS011;39345;43.964;25.340;2022-12-10T15:01:42;67.07;;;45.20;;
43835;SDS011;39345;43.964;25.340;2022-12-10T15:04:14;66.30;;;41.80;;
43835;SDS011;39345;43.964;25.340;2022-12-10T15:06:51;64.57;;;42.28;;
43835;SDS011;39345;43.964;25.340;2022-12-10T15:09:19;74.05;;;50.28;;
43835;SDS011;39345;43.964;25.340;2022-12-10T15:11:57;88.25;;;57.03;;
43835;SDS011;39345;43.964;25.340;2022-12-10T15:14:26;59.35;;;39.42;;
43835;SDS011;39345;43.964;25.340;2022-12-10T15:16:54;80.07;;;51.15;;
43835;SDS011;39345;43.964;25.340;2022-12-10T15:22:15;86.88;;;57.60;;
43835;SDS011;39345;43.964;25.340;2022-12-10T15:24:44;99.45;;;66.20;;
43835;SDS011;39345;43.964;25.340;2022-12-10T15:29:42;74.25;;;50.17;;
43835;SDS011;39345;43.964;25.340;2022-12-10T15:34:52;64.60;;;44.78;;
43835;SDS011;39345;43.964;25.340;2022-12-10T15:37:24;75.28;;;51.40;;
43835;SDS011;39345;43.964;25.340;2022-12-10T15:39:56;74.90;;;50.47;;
43835;SDS011;39345;43.964;25.340;2022-12-10T15:42:29;61.53;;;41.15;;
43835;SDS011;39345;43.964;25.340;2022-12-10T15:45:03;73.63;;;50.60;;
43835;SDS011;39345;43.964;25.340;2022-12-10T15:47:31;82.57;;;54.83;;
43835;SDS011;39345;43.964;25.340;2022-12-10T15:49:59;143.73;;;107.35;;
43835;SDS011;39345;43.964;25.340;2022-12-10T15:52:30;95.85;;;66.45;;
43835;SDS011;39345;43.964;25.340;2022-12-10T15:55:01;55.67;;;36.10;;
43835;SDS011;39345;43.964;25.340;2022-12-10T15:57:29;42.13;;;28.42;;
43835;SDS011;39345;43.964;25.340;2022-12-10T15:59:58;58.33;;;39.05;;
43835;SDS011;39345;43.964;25.340;2022-12-10T16:02:28;70.35;;;44.42;;
43835;SDS011;39345;43.964;25.340;2022-12-10T16:04:59;88.82;;;63.10;;
43835;SDS011;39345;43.964;25.340;2022-12-10T16:07:27;73.90;;;52.15;;
43835;SDS011;39345;43.964;25.340;2022-12-10T16:09:54;50.95;;;34.55;;
43835;SDS011;39345;43.964;25.340;2022-12-10T16:12:22;34.10;;;23.70;;
43835;SDS011;39345;43.964;25.340;2022-12-10T16:14:51;51.30;;;32.03;;
43835;SDS011;39345;43.964;25.340;2022-12-10T16:17:22;34.83;;;23.55;;
43835;SDS011;39345;43.964;25.340;2022-12-10T16:19:50;37.90;;;28.33;;
43835;SDS011;39345;43.964;25.340;2022-12-10T16:22:17;36.50;;;28.13;;
43835;SDS011;39345;43.964;25.340;2022-12-10T16:24:44;47.63;;;36.67;;
43835;SDS011;39345;43.964;25.340;2022-12-10T16:27:13;47.45;;;32.53;;
43835;SDS011;39345;43.964;25.340;2022-12-10T16:29:41;46.92;;;32.22;;
43835;SDS011;39345;43.964;25.340;2022-12-10T16:32:09;43.08;;;32.40;;
43835;SDS011;39345;43.964;25.340;2022-12-10T16:34:37;32.83;;;25.40;;
43835;SDS011;39345;43.964;25.340;2022-12-10T16:37:05;39.90;;;25.92;;
43835;SDS011;39345;43.964;25.340;2022-12-10T16:39:32;44.30;;;32.50;;
43835;SDS011;39345;43.964;25.340;2022-12-10T16:42:00;45.92;;;30.80;;
43835;SDS011;39345;43.964;25.340;2022-12-10T16:44:27;52.70;;;33.85;;
43835;SDS011;39345;43.964;25.340;2022-12-10T16:46:55;59.60;;;39.33;;